sensor_id;sensor_type;location;lat;lon;timestamp;P1;durP1;ratioP1;P2;durP2;ratioP2
4857;SDS011;58975;51.978;8.472;2022-12-18T00:02:14;12.30;;;5.60;;
4857;SDS011;58975;51.978;8.472;2022-12-18T00:07:11;12.05;;;6.43;;
4857;SDS011;58975;51.978;8.472;2022-12-18T00:12:07;19.85;;;8.20;;
4857;SDS011;58975;51.978;8.472;2022-12-18T00:17:10;16.38;;;7.32;;
4857;SDS011;58975;51.978;8.472;2022-12-18T00:22:07;18.83;;;6.95;;
4857;SDS011;58975;51.978;8.472;2022-12-18T00:27:04;16.90;;;6.95;;
4857;SDS011;58975;51.978;8.472;2022-12-18T00:32:00;14.02;;;6.72;;
4857;SDS011;58975;51.978;8.472;2022-12-18T00:36:56;15.48;;;6.75;;
4857;SDS011;58975;51.978;8.472;2022-12-18T00:41:53;16.42;;;7.07;;
4857;SDS011;58975;51.978;8.472;2022-12-18T00:47:08;18.85;;;6.97;;
4857;SDS011;58975;51.978;8.472;2022-12-18T00:52:04;20.60;;;7.65;;
4857;SDS011;58975;51.978;8.472;2022-12-18T00:57:01;13.27;;;6.35;;
4857;SDS011;58975;51.978;8.472;2022-12-18T01:01:57;12.75;;;6.35;;
4857;SDS011;58975;51.978;8.472;2022-12-18T01:06:54;16.95;;;6.72;;
4857;SDS011;58975;51.978;8.472;2022-12-18T01:11:50;11.52;;;6.25;;
4857;SDS011;58975;51.978;8.472;2022-12-18T01:16:46;13.52;;;6.47;;
4857;SDS011;58975;51.978;8.472;2022-12-18T01:21:43;11.15;;;5.85;;
4857;SDS011;58975;51.978;8.472;2022-12-18T01:26:39;6.63;;;4.68;;
4857;SDS011;58975;51.978;8.472;2022-12-18T01:31:36;6.65;;;3.55;;
4857;SDS011;58975;51.978;8.472;2022-12-18T01:36:33;9.45;;;4.68;;
4857;SDS011;58975;51.978;8.472;2022-12-18T01:41:31;10.50;;;4.30;;
4857;SDS011;58975;51.978;8.472;2022-12-18T01:46:48;6.97;;;3.67;;
4857;SDS011;58975;51.978;8.472;2022-12-18T01:51:44;4.90;;;3.33;;
4857;SDS011;58975;51.978;8.472;2022-12-18T01:56:41;6.13;;;3.85;;
4857;SDS011;58975;51.978;8.472;2022-12-18T02:01:37;7.65;;;3.40;;
4857;SDS011;58975;51.978;8.472;2022-12-18T02:06:35;10.60;;;3.97;;
4857;SDS011;58975;51.978;8.472;2022-12-18T02:11:48;9.10;;;3.88;;
4857;SDS011;58975;51.978;8.472;2022-12-18T02:21:57;8.70;;;3.67;;
4857;SDS011;58975;51.978;8.472;2022-12-18T02:26:59;9.45;;;4.22;;
4857;SDS011;58975;51.978;8.472;2022-12-18T02:31:59;7.50;;;3.55;;
4857;SDS011;58975;51.978;8.472;2022-12-18T02:36:56;12.75;;;3.95;;
4857;SDS011;58975;51.978;8.472;2022-12-18T02:41:55;8.73;;;3.70;;
4857;SDS011;58975;51.978;8.472;2022-12-18T02:46:53;6.10;;;2.92;;
4857;SDS011;58975;51.978;8.472;2022-12-18T02:51:53;7.75;;;3.67;;
4857;SDS011;58975;51.978;8.472;2022-12-18T02:56:51;3.92;;;2.38;;
4857;SDS011;58975;51.978;8.472;2022-12-18T03:01:57;7.82;;;3.60;;
4857;SDS011;58975;51.978;8.472;2022-12-18T03:06:58;6.22;;;3.00;;
4857;SDS011;58975;51.978;8.472;2022-12-18T03:12:02;8.30;;;3.60;;
4857;SDS011;58975;51.978;8.472;2022-12-18T03:17:21;5.38;;;2.60;;
4857;SDS011;58975;51.978;8.472;2022-12-18T03:22:21;4.93;;;2.67;;
4857;SDS011;58975;51.978;8.472;2022-12-18T03:27:20;10.95;;;2.88;;
4857;SDS011;58975;51.978;8.472;2022-12-18T03:37:24;8.30;;;3.45;;
4857;SDS011;58975;51.978;8.472;2022-12-18T03:47:53;9.55;;;4.57;;
4857;SDS011;58975;51.978;8.472;2022-12-18T03:53:00;9.15;;;4.00;;
4857;SDS011;58975;51.978;8.472;2022-12-18T03:57:58;13.35;;;4.82;;
4857;SDS011;58975;51.978;8.472;2022-12-18T04:02:58;12.80;;;5.88;;
4857;SDS011;58975;51.978;8.472;2022-12-18T04:07:57;17.20;;;6.45;;
4857;SDS011;58975;51.978;8.472;2022-12-18T04:12:56;11.35;;;6.13;;
4857;SDS011;58975;51.978;8.472;2022-12-18T04:17:53;12.70;;;6.10;;
4857;SDS011;58975;51.978;8.472;2022-12-18T04:22:50;18.65;;;9.15;;
4857;SDS011;58975;51.978;8.472;2022-12-18T04:27:46;19.25;;;9.35;;
4857;SDS011;58975;51.978;8.472;2022-12-18T04:32:42;19.50;;;8.73;;
4857;SDS011;58975;51.978;8.472;2022-12-18T04:37:45;19.23;;;9.10;;
4857;SDS011;58975;51.978;8.472;2022-12-18T04:42:42;17.75;;;7.65;;
4857;SDS011;58975;51.978;8.472;2022-12-18T04:47:38;17.13;;;8.77;;
4857;SDS011;58975;51.978;8.472;2022-12-18T04:52:35;16.52;;;8.07;;
4857;SDS011;58975;51.978;8.472;2022-12-18T04:57:32;15.95;;;8.30;;
4857;SDS011;58975;51.978;8.472;2022-12-18T05:02:28;21.02;;;8.35;;
4857;SDS011;58975;51.978;8.472;2022-12-18T05:07:25;13.95;;;7.25;;
4857;SDS011;58975;51.978;8.472;2022-12-18T05:12:21;19.13;;;7.88;;
4857;SDS011;58975;51.978;8.472;2022-12-18T05:17:17;14.52;;;6.40;;
4857;SDS011;58975;51.978;8.472;2022-12-18T05:22:14;15.75;;;7.28;;
4857;SDS011;58975;51.978;8.472;2022-12-18T05:27:10;11.65;;;5.25;;
4857;SDS011;58975;51.978;8.472;2022-12-18T05:32:07;11.45;;;5.18;;
4857;SDS011;58975;51.978;8.472;2022-12-18T05:37:03;8.40;;;4.65;;
4857;SDS011;58975;51.978;8.472;2022-12-18T05:42:00;11.65;;;4.90;;
4857;SDS011;58975;51.978;8.472;2022-12-18T05:46:56;9.05;;;4.65;;
4857;SDS011;58975;51.978;8.472;2022-12-18T05:51:53;11.45;;;5.70;;
4857;SDS011;58975;51.978;8.472;2022-12-18T05:56:49;13.05;;;5.28;;
4857;SDS011;58975;51.978;8.472;2022-12-18T06:01:46;11.40;;;4.82;;
4857;SDS011;58975;51.978;8.472;2022-12-18T06:06:42;9.15;;;4.20;;
4857;SDS011;58975;51.978;8.472;2022-12-18T06:11:39;10.18;;;4.65;;
4857;SDS011;58975;51.978;8.472;2022-12-18T06:16:35;8.88;;;3.90;;
4857;SDS011;58975;51.978;8.472;2022-12-18T06:21:32;9.10;;;3.63;;
4857;SDS011;58975;51.978;8.472;2022-12-18T06:26:29;8.13;;;3.80;;
4857;SDS011;58975;51.978;8.472;2022-12-18T06:31:26;13.13;;;5.07;;
4857;SDS011;58975;51.978;8.472;2022-12-18T06:36:22;8.73;;;3.85;;
4857;SDS011;58975;51.978;8.472;2022-12-18T06:41:19;7.35;;;4.13;;
4857;SDS011;58975;51.978;8.472;2022-12-18T06:46:17;12.53;;;3.37;;
4857;SDS011;58975;51.978;8.472;2022-12-18T06:51:15;8.98;;;4.13;;
4857;SDS011;58975;51.978;8.472;2022-12-18T06:56:13;12.15;;;3.70;;
4857;SDS011;58975;51.978;8.472;2022-12-18T07:01:10;10.32;;;4.38;;
4857;SDS011;58975;51.978;8.472;2022-12-18T07:06:14;10.55;;;4.07;;
4857;SDS011;58975;51.978;8.472;2022-12-18T07:11:13;8.07;;;3.53;;
4857;SDS011;58975;51.978;8.472;2022-12-18T07:16:11;12.82;;;3.90;;
4857;SDS011;58975;51.978;8.472;2022-12-18T07:21:18;11.48;;;3.95;;
4857;SDS011;58975;51.978;8.472;2022-12-18T07:26:16;6.50;;;3.40;;
4857;SDS011;58975;51.978;8.472;2022-12-18T07:31:15;6.22;;;3.85;;
4857;SDS011;58975;51.978;8.472;2022-12-18T07:36:14;7.68;;;4.05;;
4857;SDS011;58975;51.978;8.472;2022-12-18T07:41:11;10.05;;;3.53;;
4857;SDS011;58975;51.978;8.472;2022-12-18T07:46:09;8.82;;;3.67;;
4857;SDS011;58975;51.978;8.472;2022-12-18T07:51:08;9.00;;;3.30;;
4857;SDS011;58975;51.978;8.472;2022-12-18T07:56:07;7.07;;;3.75;;
4857;SDS011;58975;51.978;8.472;2022-12-18T08:01:25;11.32;;;3.53;;
4857;SDS011;58975;51.978;8.472;2022-12-18T08:06:22;6.60;;;3.30;;
4857;SDS011;58975;51.978;8.472;2022-12-18T08:11:20;8.27;;;3.60;;
4857;SDS011;58975;51.978;8.472;2022-12-18T08:16:17;7.25;;;3.42;;
4857;SDS011;58975;51.978;8.472;2022-12-18T08:21:15;8.23;;;4.37;;
4857;SDS011;58975;51.978;8.472;2022-12-18T08:26:16;9.13;;;3.67;;
4857;SDS011;58975;51.978;8.472;2022-12-18T08:31:14;8.57;;;3.58;;
4857;SDS011;58975;51.978;8.472;2022-12-18T08:36:11;5.55;;;3.28;;
4857;SDS011;58975;51.978;8.472;2022-12-18T08:41:08;6.03;;;3.22;;
4857;SDS011;58975;51.978;8.472;2022-12-18T08:46:06;8.32;;;3.90;;
4857;SDS011;58975;51.978;8.472;2022-12-18T08:51:03;8.45;;;3.67;;
4857;SDS011;58975;51.978;8.472;2022-12-18T08:55:59;6.30;;;3.45;;
4857;SDS011;58975;51.978;8.472;2022-12-18T09:01:02;7.03;;;3.20;;
4857;SDS011;58975;51.978;8.472;2022-12-18T09:06:00;8.27;;;4.22;;
4857;SDS011;58975;51.978;8.472;2022-12-18T09:10:56;7.82;;;4.20;;
4857;SDS011;58975;51.978;8.472;2022-12-18T09:15:53;8.18;;;4.18;;
4857;SDS011;58975;51.978;8.472;2022-12-18T09:20:51;11.20;;;4.00;;
4857;SDS011;58975;51.978;8.472;2022-12-18T09:25:48;9.05;;;3.63;;
4857;SDS011;58975;51.978;8.472;2022-12-18T09:30:46;6.97;;;3.38;;
4857;SDS011;58975;51.978;8.472;2022-12-18T09:35:45;6.22;;;3.47;;
4857;SDS011;58975;51.978;8.472;2022-12-18T09:40:43;8.07;;;3.90;;
4857;SDS011;58975;51.978;8.472;2022-12-18T09:45:47;8.50;;;3.22;;
4857;SDS011;58975;51.978;8.472;2022-12-18T09:50:49;7.88;;;3.53;;
4857;SDS011;58975;51.978;8.472;2022-12-18T09:55:48;5.57;;;3.28;;
4857;SDS011;58975;51.978;8.472;2022-12-18T10:00:48;10.57;;;3.53;;
4857;SDS011;58975;51.978;8.472;2022-12-18T10:10:51;20.92;;;10.00;;
4857;SDS011;58975;51.978;8.472;2022-12-18T10:20:52;8.35;;;3.42;;
4857;SDS011;58975;51.978;8.472;2022-12-18T10:26:03;6.18;;;3.13;;
4857;SDS011;58975;51.978;8.472;2022-12-18T10:31:04;6.80;;;3.47;;
4857;SDS011;58975;51.978;8.472;2022-12-18T10:36:14;4.80;;;3.22;;
4857;SDS011;58975;51.978;8.472;2022-12-18T10:46:17;8.43;;;3.20;;
4857;SDS011;58975;51.978;8.472;2022-12-18T10:51:20;6.65;;;2.88;;
4857;SDS011;58975;51.978;8.472;2022-12-18T10:56:19;8.13;;;4.03;;
4857;SDS011;58975;51.978;8.472;2022-12-18T11:01:17;5.47;;;3.30;;
4857;SDS011;58975;51.978;8.472;2022-12-18T11:06:17;8.18;;;3.80;;
4857;SDS011;58975;51.978;8.472;2022-12-18T11:11:21;5.53;;;3.05;;
4857;SDS011;58975;51.978;8.472;2022-12-18T11:16:19;6.90;;;2.72;;
4857;SDS011;58975;51.978;8.472;2022-12-18T11:21:16;2.70;;;1.83;;
4857;SDS011;58975;51.978;8.472;2022-12-18T11:26:13;6.35;;;3.10;;
4857;SDS011;58975;51.978;8.472;2022-12-18T11:36:17;7.53;;;2.70;;
4857;SDS011;58975;51.978;8.472;2022-12-18T11:46:51;3.97;;;2.22;;
4857;SDS011;58975;51.978;8.472;2022-12-18T11:51:55;5.30;;;1.93;;
4857;SDS011;58975;51.978;8.472;2022-12-18T12:03:27;5.30;;;2.45;;
4857;SDS011;58975;51.978;8.472;2022-12-18T12:13:44;3.65;;;2.35;;
4857;SDS011;58975;51.978;8.472;2022-12-18T12:23:50;4.90;;;2.60;;
4857;SDS011;58975;51.978;8.472;2022-12-18T12:39:40;5.78;;;2.63;;
4857;SDS011;58975;51.978;8.472;2022-12-18T12:44:40;4.90;;;2.40;;
4857;SDS011;58975;51.978;8.472;2022-12-18T12:49:50;5.40;;;2.17;;
4857;SDS011;58975;51.978;8.472;2022-12-18T12:54:48;4.15;;;2.35;;
4857;SDS011;58975;51.978;8.472;2022-12-18T12:59:47;3.75;;;2.35;;
4857;SDS011;58975;51.978;8.472;2022-12-18T13:04:52;4.88;;;2.63;;
4857;SDS011;58975;51.978;8.472;2022-12-18T13:10:22;5.90;;;2.22;;
4857;SDS011;58975;51.978;8.472;2022-12-18T13:25:34;8.10;;;2.92;;
4857;SDS011;58975;51.978;8.472;2022-12-18T13:35:38;6.78;;;2.42;;
4857;SDS011;58975;51.978;8.472;2022-12-18T13:45:36;3.50;;;2.10;;
4857;SDS011;58975;51.978;8.472;2022-12-18T13:50:36;4.70;;;2.25;;
4857;SDS011;58975;51.978;8.472;2022-12-18T13:55:32;3.97;;;2.08;;
4857;SDS011;58975;51.978;8.472;2022-12-18T14:00:30;5.95;;;2.35;;
4857;SDS011;58975;51.978;8.472;2022-12-18T14:10:25;3.95;;;2.17;;
4857;SDS011;58975;51.978;8.472;2022-12-18T14:15:43;5.03;;;2.05;;
4857;SDS011;58975;51.978;8.472;2022-12-18T14:20:43;4.90;;;1.80;;
4857;SDS011;58975;51.978;8.472;2022-12-18T14:25:47;5.55;;;2.60;;
4857;SDS011;58975;51.978;8.472;2022-12-18T14:30:44;4.15;;;2.25;;
4857;SDS011;58975;51.978;8.472;2022-12-18T14:35:58;3.95;;;1.83;;
4857;SDS011;58975;51.978;8.472;2022-12-18T14:41:00;7.40;;;2.53;;
4857;SDS011;58975;51.978;8.472;2022-12-18T14:45:58;5.40;;;2.45;;
4857;SDS011;58975;51.978;8.472;2022-12-18T14:50:57;4.70;;;2.28;;
4857;SDS011;58975;51.978;8.472;2022-12-18T14:55:55;4.03;;;2.10;;
4857;SDS011;58975;51.978;8.472;2022-12-18T15:00:52;11.65;;;2.13;;
4857;SDS011;58975;51.978;8.472;2022-12-18T15:05:49;6.93;;;2.70;;
4857;SDS011;58975;51.978;8.472;2022-12-18T15:10:46;9.10;;;2.70;;
4857;SDS011;58975;51.978;8.472;2022-12-18T15:15:44;4.85;;;2.95;;
4857;SDS011;58975;51.978;8.472;2022-12-18T15:20:45;5.22;;;2.83;;
4857;SDS011;58975;51.978;8.472;2022-12-18T15:25:54;7.25;;;3.60;;
4857;SDS011;58975;51.978;8.472;2022-12-18T15:31:02;5.80;;;2.85;;
4857;SDS011;58975;51.978;8.472;2022-12-18T15:36:15;6.20;;;3.00;;
4857;SDS011;58975;51.978;8.472;2022-12-18T15:41:20;4.93;;;2.95;;
4857;SDS011;58975;51.978;8.472;2022-12-18T15:46:23;8.82;;;3.42;;
4857;SDS011;58975;51.978;8.472;2022-12-18T15:56:22;7.47;;;3.55;;
4857;SDS011;58975;51.978;8.472;2022-12-18T16:01:38;7.30;;;3.35;;
4857;SDS011;58975;51.978;8.472;2022-12-18T16:06:38;8.77;;;3.97;;
4857;SDS011;58975;51.978;8.472;2022-12-18T16:11:54;8.80;;;4.22;;
4857;SDS011;58975;51.978;8.472;2022-12-18T16:16:52;6.90;;;3.80;;
4857;SDS011;58975;51.978;8.472;2022-12-18T16:21:51;7.72;;;3.75;;
4857;SDS011;58975;51.978;8.472;2022-12-18T16:26:48;9.10;;;4.73;;
4857;SDS011;58975;51.978;8.472;2022-12-18T16:31:47;13.80;;;4.57;;
4857;SDS011;58975;51.978;8.472;2022-12-18T16:36:43;10.70;;;4.88;;
4857;SDS011;58975;51.978;8.472;2022-12-18T16:41:40;12.15;;;4.97;;
4857;SDS011;58975;51.978;8.472;2022-12-18T16:46:37;13.25;;;5.32;;
4857;SDS011;58975;51.978;8.472;2022-12-18T16:51:34;8.68;;;3.97;;
4857;SDS011;58975;51.978;8.472;2022-12-18T16:56:30;11.70;;;5.57;;
4857;SDS011;58975;51.978;8.472;2022-12-18T17:01:27;14.55;;;5.63;;
4857;SDS011;58975;51.978;8.472;2022-12-18T17:06:26;14.47;;;5.30;;
4857;SDS011;58975;51.978;8.472;2022-12-18T17:11:24;9.25;;;5.15;;
4857;SDS011;58975;51.978;8.472;2022-12-18T17:16:22;11.65;;;5.82;;
4857;SDS011;58975;51.978;8.472;2022-12-18T17:21:19;10.82;;;5.70;;
4857;SDS011;58975;51.978;8.472;2022-12-18T17:26:16;12.60;;;5.63;;
4857;SDS011;58975;51.978;8.472;2022-12-18T17:31:16;12.40;;;5.40;;
4857;SDS011;58975;51.978;8.472;2022-12-18T17:36:15;15.45;;;6.30;;
4857;SDS011;58975;51.978;8.472;2022-12-18T17:41:12;12.90;;;6.13;;
4857;SDS011;58975;51.978;8.472;2022-12-18T17:46:08;14.82;;;7.03;;
4857;SDS011;58975;51.978;8.472;2022-12-18T17:51:05;14.43;;;7.13;;
4857;SDS011;58975;51.978;8.472;2022-12-18T17:56:03;13.40;;;5.93;;
4857;SDS011;58975;51.978;8.472;2022-12-18T18:01:03;14.57;;;6.53;;
4857;SDS011;58975;51.978;8.472;2022-12-18T18:06:01;14.50;;;6.57;;
4857;SDS011;58975;51.978;8.472;2022-12-18T18:10:57;16.92;;;7.57;;
4857;SDS011;58975;51.978;8.472;2022-12-18T18:16:17;18.45;;;7.22;;
4857;SDS011;58975;51.978;8.472;2022-12-18T18:21:13;17.02;;;7.25;;
4857;SDS011;58975;51.978;8.472;2022-12-18T18:26:10;15.70;;;6.97;;
4857;SDS011;58975;51.978;8.472;2022-12-18T18:31:08;15.75;;;7.18;;
4857;SDS011;58975;51.978;8.472;2022-12-18T18:36:07;16.77;;;7.07;;
4857;SDS011;58975;51.978;8.472;2022-12-18T18:41:04;21.10;;;8.30;;
4857;SDS011;58975;51.978;8.472;2022-12-18T18:46:02;18.58;;;8.02;;
4857;SDS011;58975;51.978;8.472;2022-12-18T18:51:01;18.58;;;7.45;;
4857;SDS011;58975;51.978;8.472;2022-12-18T18:56:00;22.55;;;9.10;;
4857;SDS011;58975;51.978;8.472;2022-12-18T19:01:16;23.80;;;8.98;;
4857;SDS011;58975;51.978;8.472;2022-12-18T19:06:25;18.07;;;8.53;;
4857;SDS011;58975;51.978;8.472;2022-12-18T19:11:24;24.27;;;9.23;;
4857;SDS011;58975;51.978;8.472;2022-12-18T19:16:39;19.55;;;8.57;;
4857;SDS011;58975;51.978;8.472;2022-12-18T19:21:36;25.77;;;9.95;;
4857;SDS011;58975;51.978;8.472;2022-12-18T19:26:33;21.27;;;9.48;;
4857;SDS011;58975;51.978;8.472;2022-12-18T19:31:30;26.67;;;10.73;;
4857;SDS011;58975;51.978;8.472;2022-12-18T19:36:31;22.63;;;9.38;;
4857;SDS011;58975;51.978;8.472;2022-12-18T19:41:28;22.35;;;9.55;;
4857;SDS011;58975;51.978;8.472;2022-12-18T19:46:29;21.75;;;8.82;;
4857;SDS011;58975;51.978;8.472;2022-12-18T19:51:26;22.02;;;10.43;;
4857;SDS011;58975;51.978;8.472;2022-12-18T19:56:26;26.10;;;11.25;;
4857;SDS011;58975;51.978;8.472;2022-12-18T20:01:25;27.30;;;11.25;;
4857;SDS011;58975;51.978;8.472;2022-12-18T20:11:28;26.35;;;11.20;;
4857;SDS011;58975;51.978;8.472;2022-12-18T20:16:26;29.30;;;12.65;;
4857;SDS011;58975;51.978;8.472;2022-12-18T20:21:23;26.15;;;11.38;;
4857;SDS011;58975;51.978;8.472;2022-12-18T20:26:20;30.67;;;12.25;;
4857;SDS011;58975;51.978;8.472;2022-12-18T20:31:18;31.35;;;10.73;;
4857;SDS011;58975;51.978;8.472;2022-12-18T20:36:15;23.50;;;10.70;;
4857;SDS011;58975;51.978;8.472;2022-12-18T20:41:18;25.25;;;9.57;;
4857;SDS011;58975;51.978;8.472;2022-12-18T20:46:16;29.00;;;10.85;;
4857;SDS011;58975;51.978;8.472;2022-12-18T20:51:15;29.20;;;11.73;;
4857;SDS011;58975;51.978;8.472;2022-12-18T20:56:15;23.67;;;11.52;;
4857;SDS011;58975;51.978;8.472;2022-12-18T21:01:18;30.25;;;10.52;;
4857;SDS011;58975;51.978;8.472;2022-12-18T21:06:17;29.05;;;11.85;;
4857;SDS011;58975;51.978;8.472;2022-12-18T21:16:38;22.98;;;10.52;;
4857;SDS011;58975;51.978;8.472;2022-12-18T21:21:35;29.52;;;12.70;;
4857;SDS011;58975;51.978;8.472;2022-12-18T21:26:34;24.45;;;11.35;;
4857;SDS011;58975;51.978;8.472;2022-12-18T21:31:40;28.00;;;12.27;;
4857;SDS011;58975;51.978;8.472;2022-12-18T21:36:37;29.92;;;11.13;;
4857;SDS011;58975;51.978;8.472;2022-12-18T21:41:33;30.67;;;10.40;;
4857;SDS011;58975;51.978;8.472;2022-12-18T21:46:50;26.33;;;11.63;;
4857;SDS011;58975;51.978;8.472;2022-12-18T21:51:57;28.70;;;12.15;;
4857;SDS011;58975;51.978;8.472;2022-12-18T22:01:52;26.33;;;11.38;;
4857;SDS011;58975;51.978;8.472;2022-12-18T22:06:50;31.00;;;11.63;;
4857;SDS011;58975;51.978;8.472;2022-12-18T22:11:47;31.58;;;12.68;;
4857;SDS011;58975;51.978;8.472;2022-12-18T22:16:44;26.67;;;11.38;;
4857;SDS011;58975;51.978;8.472;2022-12-18T22:21:42;29.98;;;11.68;;
4857;SDS011;58975;51.978;8.472;2022-12-18T22:26:41;28.13;;;12.00;;
4857;SDS011;58975;51.978;8.472;2022-12-18T22:31:38;28.55;;;11.77;;
4857;SDS011;58975;51.978;8.472;2022-12-18T22:36:36;28.27;;;12.18;;
4857;SDS011;58975;51.978;8.472;2022-12-18T22:41:35;30.70;;;12.80;;
4857;SDS011;58975;51.978;8.472;2022-12-18T22:46:32;36.78;;;12.73;;
4857;SDS011;58975;51.978;8.472;2022-12-18T22:51:32;26.23;;;11.82;;
4857;SDS011;58975;51.978;8.472;2022-12-18T22:56:29;32.50;;;12.27;;
4857;SDS011;58975;51.978;8.472;2022-12-18T23:01:26;28.02;;;12.30;;
4857;SDS011;58975;51.978;8.472;2022-12-18T23:06:25;29.77;;;12.00;;
4857;SDS011;58975;51.978;8.472;2022-12-18T23:11:23;32.20;;;12.23;;
4857;SDS011;58975;51.978;8.472;2022-12-18T23:16:20;30.20;;;12.38;;
4857;SDS011;58975;51.978;8.472;2022-12-18T23:21:17;28.65;;;11.52;;
4857;SDS011;58975;51.978;8.472;2022-12-18T23:26:16;30.05;;;11.57;;
4857;SDS011;58975;51.978;8.472;2022-12-18T23:31:17;32.25;;;13.60;;
4857;SDS011;58975;51.978;8.472;2022-12-18T23:36:16;33.40;;;13.73;;
4857;SDS011;58975;51.978;8.472;2022-12-18T23:41:13;33.00;;;12.48;;
4857;SDS011;58975;51.978;8.472;2022-12-18T23:51:19;28.92;;;12.57;;
4857;SDS011;58975;51.978;8.472;2022-12-18T23:56:20;28.40;;;11.88;;
